createdAt,value
2018-04-24T00:00:05.731Z,99.90
2018-04-24T00:02:33.390Z,99.90
2018-04-24T00:05:00.922Z,99.90
2018-04-24T00:07:28.414Z,99.90
2018-04-24T00:09:55.964Z,99.90
2018-04-24T00:12:23.642Z,99.90
2018-04-24T00:14:51.201Z,99.90
2018-04-24T00:17:19.484Z,99.90
2018-04-24T00:19:47.019Z,99.90
2018-04-24T00:22:14.724Z,99.90
2018-04-24T00:24:42.257Z,99.90
2018-04-24T00:27:09.803Z,99.90
2018-04-24T00:29:37.297Z,99.90
2018-04-24T00:32:04.830Z,99.90
2018-04-24T00:34:32.327Z,99.90
2018-04-24T00:36:59.866Z,99.90
2018-04-24T00:39:27.568Z,99.90
2018-04-24T00:41:55.113Z,99.90
2018-04-24T00:44:22.620Z,99.90
2018-04-24T00:46:50.163Z,99.90
2018-04-24T00:49:17.665Z,99.90
2018-04-24T00:51:45.962Z,99.90
2018-04-24T00:54:13.465Z,99.90
2018-04-24T00:56:41.000Z,99.90
2018-04-24T00:59:08.540Z,99.90
2018-04-24T01:01:36.039Z,99.90
2018-04-24T01:04:03.574Z,99.90
2018-04-24T01:06:31.073Z,99.90
2018-04-24T01:08:58.614Z,99.90
2018-04-24T01:11:26.114Z,99.90
2018-04-24T01:13:53.989Z,99.90
2018-04-24T01:16:21.492Z,99.90
2018-04-24T01:18:49.034Z,99.90
2018-04-24T01:21:16.527Z,99.90
2018-04-24T01:23:44.057Z,99.90
2018-04-24T01:26:11.552Z,99.90
2018-04-24T01:28:39.362Z,99.90
2018-04-24T01:31:06.858Z,99.90
2018-04-24T01:33:34.358Z,99.90
2018-04-24T01:36:02.662Z,99.90
2018-04-24T01:38:30.202Z,99.90
2018-04-24T01:40:57.698Z,99.90
2018-04-24T01:43:25.239Z,99.90
2018-04-24T01:45:52.738Z,99.90
2018-04-24T01:48:20.267Z,99.90
2018-04-24T01:50:47.773Z,99.90
2018-04-24T01:53:15.482Z,99.90
2018-04-24T01:55:42.993Z,99.90
2018-04-24T01:58:11.266Z,99.90
2018-04-24T02:00:40.466Z,99.90
2018-04-24T02:03:08.261Z,99.90
2018-04-24T02:05:35.753Z,99.90
2018-04-24T02:08:03.266Z,99.90
2018-04-24T02:10:31.554Z,99.90
2018-04-24T02:12:59.527Z,99.90
2018-04-24T02:15:27.040Z,99.90
2018-04-24T02:17:54.536Z,99.90
2018-04-24T02:20:22.079Z,99.90
2018-04-24T02:22:49.713Z,99.90
2018-04-24T02:25:17.248Z,99.90
2018-04-24T02:27:44.743Z,99.90
2018-04-24T02:30:12.303Z,99.90
2018-04-24T02:32:39.850Z,99.90
2018-04-24T02:35:07.359Z,99.90
2018-04-24T02:37:34.855Z,99.90
2018-04-24T02:40:02.386Z,99.90
2018-04-24T02:42:29.883Z,99.90
2018-04-24T02:44:57.411Z,99.90
2018-04-24T02:47:24.905Z,99.90
2018-04-24T02:49:52.433Z,99.90
2018-04-24T02:52:19.939Z,99.90
2018-04-24T02:54:48.237Z,99.90
2018-04-24T02:57:15.748Z,99.90
2018-04-24T02:59:43.296Z,99.90
2018-04-24T03:02:10.853Z,99.90
2018-04-24T03:04:38.391Z,99.90
2018-04-24T03:07:05.890Z,99.90
2018-04-24T03:09:33.431Z,99.80
2018-04-24T03:12:00.946Z,99.50
2018-04-24T03:14:28.482Z,99.60
2018-04-24T03:16:56.753Z,99.90
2018-04-24T03:19:24.554Z,99.90
2018-04-24T03:21:52.083Z,99.90
2018-04-24T03:24:20.359Z,99.90
2018-04-24T03:26:48.663Z,99.70
2018-04-24T03:29:16.159Z,99.70
2018-04-24T03:31:43.752Z,99.60
2018-04-24T03:34:11.251Z,99.40
2018-04-24T03:36:38.797Z,99.30
2018-04-24T03:39:06.294Z,99.30
2018-04-24T03:41:33.827Z,98.80
2018-04-24T03:44:01.326Z,99.10
2018-04-24T03:46:28.858Z,99.00
2018-04-24T03:48:56.377Z,99.30
2018-04-24T03:51:24.683Z,99.80
2018-04-24T03:53:52.186Z,99.80
2018-04-24T03:56:19.743Z,99.90
2018-04-24T03:58:47.261Z,99.90
2018-04-24T04:01:14.926Z,99.60
2018-04-24T04:03:42.426Z,99.40
2018-04-24T04:06:10.012Z,99.30
2018-04-24T04:08:37.538Z,99.60
2018-04-24T04:11:05.085Z,99.60
2018-04-24T04:13:32.695Z,99.90
2018-04-24T04:16:00.309Z,99.90
2018-04-24T04:18:42.899Z,99.90
2018-04-24T04:21:22.498Z,99.90
2018-04-24T04:24:02.011Z,99.90
2018-04-24T04:26:29.608Z,99.50
2018-04-24T04:28:58.002Z,99.60
2018-04-24T04:31:25.553Z,99.60
2018-04-24T04:33:53.052Z,98.90
2018-04-24T04:36:20.584Z,99.00
2018-04-24T04:38:48.087Z,99.20
2018-04-24T04:41:15.639Z,99.20
2018-04-24T04:43:43.162Z,99.40
2018-04-24T04:46:10.715Z,99.40
2018-04-24T04:48:38.282Z,99.60
2018-04-24T04:51:05.839Z,99.70
2018-04-24T04:53:33.425Z,99.70
2018-04-24T04:56:00.999Z,99.50
2018-04-24T04:58:29.245Z,99.20
2018-04-24T05:00:56.786Z,99.20
2018-04-24T05:03:24.288Z,98.80
2018-04-24T05:05:51.834Z,98.80
2018-04-24T05:08:19.340Z,98.90
2018-04-24T05:10:46.878Z,98.90
2018-04-24T05:13:14.517Z,98.90
2018-04-24T05:15:42.254Z,98.90
2018-04-24T05:18:09.980Z,98.90
2018-04-24T05:20:37.543Z,99.00
2018-04-24T05:23:06.002Z,99.20
2018-04-24T05:25:33.658Z,99.00
2018-04-24T05:28:01.242Z,99.00
2018-04-24T05:30:28.759Z,98.40
2018-04-24T05:32:57.010Z,98.80
2018-04-24T05:35:24.548Z,98.50
2018-04-24T05:37:52.850Z,98.20
2018-04-24T05:40:20.369Z,98.20
2018-04-24T05:42:48.035Z,97.90
2018-04-24T05:45:15.574Z,98.40
2018-04-24T05:47:44.128Z,98.10
2018-04-24T05:50:12.618Z,98.40
2018-04-24T05:52:40.905Z,98.30
2018-04-24T05:55:09.114Z,97.90
2018-04-24T05:57:37.501Z,98.10
2018-04-24T06:00:05.964Z,98.30
2018-04-24T06:02:33.548Z,98.30
2018-04-24T06:05:01.056Z,98.40
2018-04-24T06:07:28.626Z,98.10
2018-04-24T06:09:56.124Z,98.80
2018-04-24T06:12:23.622Z,98.80
2018-04-24T06:14:51.172Z,98.40
2018-04-24T06:17:18.668Z,98.50
2018-04-24T06:19:46.209Z,98.60
2018-04-24T06:22:13.874Z,98.50
2018-04-24T06:24:41.403Z,98.10
2018-04-24T06:27:08.897Z,98.10
2018-04-24T06:29:36.516Z,97.90
2018-04-24T06:32:04.007Z,98.00
2018-04-24T06:34:31.510Z,97.90
2018-04-24T06:36:59.820Z,98.00
2018-04-24T06:39:27.323Z,98.00
2018-04-24T06:41:54.864Z,98.00
2018-04-24T06:44:22.375Z,98.00
2018-04-24T06:46:49.918Z,98.00
2018-04-24T06:49:17.419Z,98.40
2018-04-24T06:51:44.985Z,98.50
2018-04-24T06:54:12.487Z,98.30
2018-04-24T06:56:40.033Z,98.40
2018-04-24T06:59:07.536Z,98.10
2018-04-24T07:01:35.080Z,98.20
2018-04-24T07:04:02.757Z,98.20
2018-04-24T07:06:30.333Z,98.30
2018-04-24T07:08:57.817Z,98.40
2018-04-24T07:11:25.353Z,98.20
2018-04-24T07:13:52.855Z,97.60
2018-04-24T07:16:21.153Z,96.70
2018-04-24T07:18:48.671Z,96.60
2018-04-24T07:21:16.171Z,97.20
2018-04-24T07:23:43.705Z,97.40
2018-04-24T07:26:12.064Z,96.80
2018-04-24T07:28:39.786Z,96.80
2018-04-24T07:31:07.282Z,96.80
2018-04-24T07:33:34.825Z,96.60
2018-04-24T07:36:02.362Z,96.40
2018-04-24T07:38:29.911Z,95.80
2018-04-24T07:40:57.415Z,96.00
2018-04-24T07:43:24.956Z,95.50
2018-04-24T07:45:52.502Z,95.30
2018-04-24T07:48:20.034Z,94.50
2018-04-24T07:50:47.552Z,94.20
2018-04-24T07:53:15.175Z,93.70
2018-04-24T07:55:42.684Z,91.90
2018-04-24T07:58:10.189Z,90.20
2018-04-24T08:00:37.755Z,89.50
2018-04-24T08:03:05.254Z,89.40
2018-04-24T08:05:32.797Z,88.80
2018-04-24T08:08:00.291Z,87.60
2018-04-24T08:10:27.993Z,87.00
2018-04-24T08:12:55.534Z,87.30
2018-04-24T08:15:23.088Z,85.40
2018-04-24T08:17:50.599Z,85.30
2018-04-24T08:20:18.146Z,85.40
2018-04-24T08:22:45.705Z,85.30
2018-04-24T08:25:13.277Z,85.00
2018-04-24T08:27:40.826Z,83.60
2018-04-24T08:30:08.407Z,84.20
2018-04-24T08:32:35.912Z,84.20
2018-04-24T08:35:03.459Z,84.10
2018-04-24T08:37:31.728Z,82.60
2018-04-24T08:40:00.091Z,81.90
2018-04-24T08:42:27.599Z,81.90
2018-04-24T08:44:55.130Z,81.70
2018-04-24T08:47:23.394Z,80.90
2018-04-24T08:49:51.698Z,81.20
2018-04-24T08:52:19.209Z,81.10
2018-04-24T08:54:46.918Z,80.80
2018-04-24T08:57:14.414Z,81.30
2018-04-24T08:59:41.927Z,80.90
2018-04-24T09:02:09.636Z,79.70
2018-04-24T09:04:37.175Z,79.80
2018-04-24T09:07:04.727Z,78.10
2018-04-24T09:09:32.297Z,79.40
2018-04-24T09:11:59.848Z,79.50
2018-04-24T09:14:27.348Z,77.70
2018-04-24T09:16:54.884Z,78.30
2018-04-24T09:19:22.420Z,77.80
2018-04-24T09:21:49.963Z,77.90
2018-04-24T09:24:17.466Z,78.00
2018-04-24T09:26:45.032Z,78.00
2018-04-24T09:29:12.536Z,78.20
2018-04-24T09:31:43.997Z,77.50
2018-04-24T09:34:11.536Z,76.00
2018-04-24T09:36:39.031Z,75.20
2018-04-24T09:39:06.572Z,74.60
2018-04-24T09:41:34.070Z,74.40
2018-04-24T09:44:01.719Z,75.30
2018-04-24T09:46:29.135Z,75.80
2018-04-24T09:48:57.490Z,74.40
2018-04-24T09:51:25.018Z,74.40
2018-04-24T09:53:52.503Z,73.80
2018-04-24T09:56:20.061Z,73.80
2018-04-24T09:58:47.615Z,73.80
2018-04-24T10:01:15.234Z,73.70
2018-04-24T10:03:42.898Z,73.90
2018-04-24T10:06:10.750Z,74.00
2018-04-24T10:08:38.847Z,72.30
2018-04-24T10:11:07.257Z,73.50
2018-04-24T10:13:35.613Z,72.70
2018-04-24T10:16:03.113Z,72.60
2018-04-24T10:18:31.495Z,73.10
2018-04-24T10:20:59.099Z,73.10
2018-04-24T10:23:26.751Z,73.60
2018-04-24T10:25:54.291Z,72.70
2018-04-24T10:28:21.852Z,73.10
2018-04-24T10:30:49.417Z,72.00
2018-04-24T10:33:16.929Z,71.90
2018-04-24T10:35:44.467Z,71.10
2018-04-24T10:38:11.975Z,71.10
2018-04-24T10:40:39.520Z,70.70
2018-04-24T10:43:07.010Z,70.10
2018-04-24T10:45:34.559Z,70.00
2018-04-24T10:48:02.114Z,69.90
2018-04-24T10:50:30.448Z,69.80
2018-04-24T10:52:58.056Z,69.80
2018-04-24T10:55:26.640Z,70.30
2018-04-24T10:57:54.208Z,69.60
2018-04-24T11:00:21.793Z,69.50
2018-04-24T11:02:49.788Z,69.50
2018-04-24T11:05:17.339Z,69.90
2018-04-24T11:07:44.838Z,69.60
2018-04-24T11:10:13.158Z,69.60
2018-04-24T11:12:40.752Z,69.50
2018-04-24T11:15:08.300Z,69.70
2018-04-24T11:17:36.097Z,68.90
2018-04-24T11:20:04.367Z,69.80
2018-04-24T11:22:32.686Z,69.80
2018-04-24T11:25:00.250Z,69.30
2018-04-24T11:27:27.809Z,69.90
2018-04-24T11:29:55.312Z,69.90
2018-04-24T11:32:22.898Z,69.60
2018-04-24T11:34:51.152Z,67.80
2018-04-24T11:37:18.699Z,67.70
2018-04-24T11:39:46.971Z,68.70
2018-04-24T11:42:14.535Z,68.20
2018-04-24T11:44:42.048Z,68.80
2018-04-24T11:47:09.588Z,67.00
2018-04-24T11:49:37.099Z,67.10
2018-04-24T11:52:04.995Z,67.80
2018-04-24T11:54:33.260Z,67.80
2018-04-24T11:57:00.880Z,67.40
2018-04-24T11:59:28.355Z,66.10
2018-04-24T12:01:55.976Z,66.80
2018-04-24T12:04:23.478Z,66.60
2018-04-24T12:06:51.048Z,67.20
2018-04-24T12:09:18.565Z,64.60
2018-04-24T12:11:46.099Z,66.00
2018-04-24T12:14:14.359Z,66.20
2018-04-24T12:16:41.924Z,66.10
2018-04-24T12:19:09.434Z,65.20
2018-04-24T12:21:37.287Z,66.60
2018-04-24T12:24:04.787Z,66.90
2018-04-24T12:26:32.352Z,66.10
2018-04-24T12:28:59.908Z,65.90
2018-04-24T12:31:28.899Z,65.40
2018-04-24T12:33:56.423Z,65.20
2018-04-24T12:36:23.979Z,66.30
2018-04-24T12:41:25.409Z,65.80
2018-04-24T12:43:53.690Z,65.30
2018-04-24T12:46:22.553Z,65.30
2018-04-24T12:48:50.054Z,65.20
2018-04-24T12:51:17.592Z,65.20
2018-04-24T12:53:45.089Z,63.70
2018-04-24T12:56:12.626Z,65.20
2018-04-24T12:58:40.891Z,65.10
2018-04-24T13:01:09.246Z,64.20
2018-04-24T13:03:36.813Z,64.10
2018-04-24T13:06:04.356Z,64.90
2018-04-24T13:08:31.848Z,65.00
2018-04-24T13:10:59.389Z,64.80
2018-04-24T13:13:26.895Z,64.70
2018-04-24T13:15:54.460Z,65.10
2018-04-24T13:18:22.188Z,64.60
2018-04-24T13:20:50.734Z,65.90
2018-04-24T13:23:18.251Z,65.90
2018-04-24T13:25:45.819Z,66.60
2018-04-24T13:28:14.116Z,66.20
2018-04-24T13:30:41.860Z,66.50
2018-04-24T13:33:09.406Z,66.60
2018-04-24T13:35:36.977Z,66.20
2018-04-24T13:38:04.458Z,65.70
2018-04-24T13:40:31.999Z,66.40
2018-04-24T13:42:59.531Z,66.90
2018-04-24T13:45:27.031Z,66.30
2018-04-24T13:47:54.581Z,66.20
2018-04-24T13:50:22.078Z,66.00
2018-04-24T13:52:49.618Z,64.70
2018-04-24T13:55:17.150Z,66.30
2018-04-24T13:57:44.723Z,65.90
2018-04-24T14:00:12.223Z,65.50
2018-04-24T14:02:39.768Z,65.50
2018-04-24T14:05:07.268Z,65.20
2018-04-24T14:07:34.817Z,65.00
2018-04-24T14:10:03.080Z,64.70
2018-04-24T14:12:31.398Z,65.30
2018-04-24T14:14:58.893Z,65.30
2018-04-24T14:17:26.431Z,64.50
2018-04-24T14:19:53.980Z,63.90
2018-04-24T14:22:21.477Z,62.80
2018-04-24T14:24:49.012Z,62.30
2018-04-24T14:27:16.519Z,62.10
2018-04-24T14:29:44.827Z,63.50
2018-04-24T14:32:12.316Z,63.50
2018-04-24T14:34:39.866Z,63.30
2018-04-24T14:37:07.431Z,63.80
2018-04-24T14:39:34.964Z,64.00
2018-04-24T14:42:02.476Z,63.90
2018-04-24T14:44:30.786Z,64.70
2018-04-24T14:46:58.342Z,64.70
2018-04-24T14:49:25.883Z,64.90
2018-04-24T14:51:54.243Z,65.20
2018-04-24T14:54:21.756Z,65.20
2018-04-24T14:56:49.308Z,64.80
2018-04-24T14:59:16.796Z,64.60
2018-04-24T15:01:44.375Z,65.20
2018-04-24T15:04:11.900Z,65.20
2018-04-24T15:06:42.367Z,65.30
2018-04-24T15:09:10.541Z,65.20
2018-04-24T15:11:39.641Z,65.90
2018-04-24T15:14:08.666Z,65.80
2018-04-24T15:16:36.222Z,65.90
2018-04-24T15:19:03.761Z,66.60
2018-04-24T15:21:32.040Z,66.00
2018-04-24T15:24:00.364Z,66.10
2018-04-24T15:26:27.914Z,66.00
2018-04-24T15:28:55.470Z,66.20
2018-04-24T15:31:22.966Z,65.90
2018-04-24T15:33:50.533Z,66.80
2018-04-24T15:36:18.097Z,68.00
2018-04-24T15:38:45.650Z,68.00
2018-04-24T15:41:13.183Z,68.00
2018-04-24T15:43:40.735Z,68.00
2018-04-24T15:46:08.227Z,68.00
2018-04-24T15:48:35.791Z,68.00
2018-04-24T15:51:03.297Z,68.00
2018-04-24T15:53:30.834Z,68.00
2018-04-24T15:55:59.157Z,68.00
2018-04-24T15:58:26.709Z,68.00
2018-04-24T16:00:54.230Z,67.90
2018-04-24T16:03:22.708Z,67.80
2018-04-24T16:05:50.994Z,67.90
2018-04-24T16:08:18.556Z,67.80
2018-04-24T16:10:46.081Z,68.00
2018-04-24T16:13:13.638Z,68.80
2018-04-24T16:15:41.147Z,67.70
2018-04-24T16:18:08.686Z,68.70
2018-04-24T16:20:36.177Z,69.00
2018-04-24T16:23:03.753Z,69.10
2018-04-24T16:25:31.283Z,69.30
2018-04-24T16:27:58.819Z,69.20
2018-04-24T16:30:26.334Z,69.40
2018-04-24T16:32:53.878Z,69.40
2018-04-24T16:35:21.387Z,70.00
2018-04-24T16:37:48.923Z,69.70
2018-04-24T16:40:16.499Z,70.10
2018-04-24T16:42:44.038Z,70.30
2018-04-24T16:45:11.551Z,70.50
2018-04-24T16:47:39.094Z,70.20
2018-04-24T16:50:06.604Z,69.90
2018-04-24T16:52:34.106Z,70.30
2018-04-24T16:55:01.648Z,70.30
2018-04-24T16:57:29.187Z,70.70
2018-04-24T16:59:56.710Z,70.40
2018-04-24T17:02:24.440Z,70.40
2018-04-24T17:04:52.048Z,70.40
2018-04-24T17:07:19.602Z,70.30
2018-04-24T17:09:47.114Z,70.20
2018-04-24T17:12:15.420Z,71.10
2018-04-24T17:14:42.949Z,71.10
2018-04-24T17:17:10.526Z,70.80
2018-04-24T17:19:38.164Z,71.60
2018-04-24T17:22:06.571Z,72.10
2018-04-24T17:24:34.106Z,71.80
2018-04-24T17:27:02.359Z,72.00
2018-04-24T17:29:29.894Z,72.00
2018-04-24T17:31:57.426Z,71.80
2018-04-24T17:34:24.956Z,72.40
2018-04-24T17:36:53.286Z,72.90
2018-04-24T17:39:20.844Z,72.90
2018-04-24T17:41:48.350Z,73.00
2018-04-24T17:44:16.655Z,73.10
2018-04-24T17:46:44.178Z,73.10
2018-04-24T17:49:11.715Z,73.00
2018-04-24T17:51:39.219Z,73.50
2018-04-24T17:54:07.527Z,73.80
2018-04-24T17:56:35.040Z,73.70
2018-04-24T17:59:02.749Z,73.80
2018-04-24T18:01:30.262Z,74.10
2018-04-24T18:03:58.599Z,74.50
2018-04-24T18:06:26.133Z,74.50
2018-04-24T18:08:53.699Z,74.20
2018-04-24T18:11:21.312Z,74.60
2018-04-24T18:13:48.790Z,74.80
2018-04-24T18:16:17.064Z,74.90
2018-04-24T18:18:45.385Z,75.20
2018-04-24T18:21:12.912Z,75.20
2018-04-24T18:23:40.576Z,75.50
2018-04-24T18:26:08.076Z,75.50
2018-04-24T18:28:35.632Z,75.40
2018-04-24T18:31:03.140Z,75.30
2018-04-24T18:33:30.689Z,75.20
2018-04-24T18:35:58.986Z,74.70
2018-04-24T18:38:26.533Z,74.60
2018-04-24T18:40:54.813Z,74.90
2018-04-24T18:43:22.360Z,74.80
2018-04-24T18:45:50.626Z,75.10
2018-04-24T18:48:18.178Z,75.10
2018-04-24T18:50:45.683Z,75.00
2018-04-24T18:53:13.277Z,75.00
2018-04-24T18:55:41.190Z,75.40
2018-04-24T18:58:08.692Z,75.50
2018-04-24T19:00:36.223Z,75.20
2018-04-24T19:03:03.722Z,75.70
2018-04-24T19:05:31.272Z,76.10
2018-04-24T19:07:58.793Z,76.30
2018-04-24T19:10:26.328Z,76.30
2018-04-24T19:12:53.843Z,76.50
2018-04-24T19:15:21.387Z,76.70
2018-04-24T19:17:48.904Z,77.00
2018-04-24T19:20:17.224Z,77.80
2018-04-24T19:22:44.818Z,77.70
2018-04-24T19:25:18.087Z,78.20
2018-04-24T19:27:45.607Z,77.80
2018-04-24T19:30:13.985Z,78.40
2018-04-24T19:32:41.483Z,78.30
2018-04-24T19:35:09.041Z,78.10
2018-04-24T19:37:36.535Z,78.90
2018-04-24T19:40:09.615Z,78.90
2018-04-24T19:42:37.162Z,78.90
2018-04-24T19:45:04.731Z,78.90
2018-04-24T19:47:32.260Z,78.90
2018-04-24T19:50:05.591Z,78.90
2018-04-24T19:52:33.107Z,78.90
2018-04-24T19:55:06.301Z,78.90
2018-04-24T19:57:33.934Z,78.90
2018-04-24T20:00:02.296Z,79.10
2018-04-24T20:02:29.856Z,79.00
2018-04-24T20:04:57.448Z,78.80
2018-04-24T20:07:24.999Z,78.80
2018-04-24T20:09:53.362Z,79.90
2018-04-24T20:12:20.908Z,79.70
2018-04-24T20:14:48.458Z,80.20
2018-04-24T20:17:17.505Z,80.10
2018-04-24T20:19:45.055Z,80.10
2018-04-24T20:22:12.601Z,79.80
2018-04-24T20:24:41.760Z,80.20
2018-04-24T20:27:09.440Z,80.20
2018-04-24T20:29:37.138Z,80.70
2018-04-24T20:32:04.669Z,80.50
2018-04-24T20:34:32.964Z,80.50
2018-04-24T20:37:01.283Z,80.40
2018-04-24T20:39:28.784Z,80.40
2018-04-24T20:41:56.349Z,80.40
2018-04-24T20:44:24.609Z,80.80
2018-04-24T20:46:52.143Z,81.30
2018-04-24T20:49:19.633Z,80.80
2018-04-24T20:51:47.147Z,80.50
2018-04-24T20:54:14.758Z,80.60
2018-04-24T20:56:42.265Z,80.90
2018-04-24T20:59:09.798Z,80.70
2018-04-24T21:01:37.362Z,80.70
2018-04-24T21:04:05.010Z,80.90
2018-04-24T21:06:32.503Z,80.70
2018-04-24T21:09:00.034Z,81.00
2018-04-24T21:11:27.553Z,81.10
2018-04-24T21:13:55.117Z,81.20
2018-04-24T21:16:22.622Z,81.70
2018-04-24T21:18:51.043Z,82.40
2018-04-24T21:21:18.599Z,82.40
2018-04-24T21:23:46.139Z,82.30
2018-04-24T21:26:13.678Z,82.30
2018-04-24T21:28:41.956Z,82.30
2018-04-24T21:31:09.468Z,82.30
2018-04-24T21:33:37.121Z,82.30
2018-04-24T21:36:05.455Z,82.20
2018-04-24T21:38:32.974Z,82.20
2018-04-24T21:41:00.505Z,82.10
2018-04-24T21:43:28.051Z,82.10
2018-04-24T21:45:55.589Z,82.10
2018-04-24T21:48:23.115Z,82.10
2018-04-24T21:50:50.668Z,82.10
2018-04-24T21:53:18.928Z,82.30
2018-04-24T21:55:46.459Z,82.00
2018-04-24T21:58:13.963Z,82.00
2018-04-24T22:00:41.504Z,82.00
2018-04-24T22:03:09.013Z,82.50
2018-04-24T22:05:36.560Z,82.90
2018-04-24T22:08:04.108Z,83.20
2018-04-24T22:10:32.403Z,83.10
2018-04-24T22:12:59.907Z,83.10
2018-04-24T22:15:27.444Z,82.40
2018-04-24T22:17:54.944Z,82.80
2018-04-24T22:20:22.524Z,83.00
2018-04-24T22:22:50.059Z,82.60
2018-04-24T22:25:17.555Z,83.10
2018-04-24T22:27:45.095Z,83.10
2018-04-24T22:30:12.605Z,82.50
2018-04-24T22:32:40.163Z,83.80
2018-04-24T22:35:07.659Z,82.90
2018-04-24T22:37:35.198Z,83.40
2018-04-24T22:40:02.707Z,83.80
2018-04-24T22:42:30.243Z,83.50
2018-04-24T22:44:57.770Z,83.40
2018-04-24T22:47:25.273Z,83.40
2018-04-24T22:49:53.582Z,82.90
2018-04-24T22:52:21.080Z,82.90
2018-04-24T22:54:48.619Z,83.20
2018-04-24T22:57:16.111Z,83.00
2018-04-24T22:59:44.414Z,82.90
2018-04-24T23:02:11.943Z,82.90
2018-04-24T23:04:39.606Z,82.80
2018-04-24T23:07:07.106Z,83.40
2018-04-24T23:09:34.647Z,82.70
2018-04-24T23:12:13.962Z,82.40
2018-04-24T23:14:54.208Z,83.10
2018-04-24T23:17:33.413Z,82.90
2018-04-24T23:20:12.923Z,82.70
2018-04-24T23:22:41.344Z,83.30
2018-04-24T23:25:08.874Z,83.10
2018-04-24T23:27:36.416Z,83.10
2018-04-24T23:30:03.939Z,83.80
2018-04-24T23:32:32.206Z,84.40
2018-04-24T23:34:59.806Z,84.40
2018-04-24T23:37:27.433Z,84.40
2018-04-24T23:39:55.804Z,83.90
2018-04-24T23:42:23.294Z,83.90
2018-04-24T23:44:50.823Z,84.40
2018-04-24T23:47:18.380Z,83.90
2018-04-24T23:49:45.871Z,84.00
2018-04-24T23:52:13.410Z,84.50
2018-04-24T23:54:41.735Z,84.10
2018-04-24T23:57:09.360Z,84.10
2018-04-24T23:59:37.646Z,84.20
